Shalimar, Florida
Current Conditions -  °F | °C
As of 4:21 PM on Tuesday 21 Oct 2014 (Local Time) from KVPS Reporting Station
Few Clouds Few Clouds  
Wind Chill: 79°   Ceiling: Unl
Heat Index: 80°   Visibility: 10mi
Dew Point: 57°   Wind: 5mph
Humidity: 47%   Direction: NA
Pressure: 29.95"   Gusts: NA
Location:  30.45°N, 86.58°W
Report Text: KVPS 212121Z VRB04KT 10SM FEW250 26/14 A2995 RMK AO2A FU NE $
Loading
Personal Weather Stations






























Interactive Weather Map
Tropical Storm Tracking
New forecast layout! Learn more

10-Day Weather Forecast

Advertisements
Track Severe Weather on mobile